createdAt,value
2022-08-14T00:02:27.383Z,6.30
2022-08-14T00:04:57.464Z,4.90
2022-08-14T00:07:25.419Z,9.15
2022-08-14T00:10:01.561Z,5.53
2022-08-14T00:12:56.844Z,5.60
2022-08-14T00:15:29.646Z,5.38
2022-08-14T00:18:06.826Z,6.65
2022-08-14T00:20:43.027Z,5.68
2022-08-14T00:23:16.632Z,4.15
2022-08-14T00:25:53.738Z,5.13
2022-08-14T00:28:29.245Z,4.93
2022-08-14T00:31:00.974Z,8.35
2022-08-14T00:33:51.531Z,7.72
2022-08-14T00:36:35.422Z,5.22
2022-08-14T00:39:09.589Z,7.13
2022-08-14T00:41:40.738Z,10.10
2022-08-14T00:44:10.522Z,4.43
2022-08-14T00:46:40.965Z,5.40
2022-08-14T00:49:11.597Z,5.95
2022-08-14T00:51:44.644Z,6.57
2022-08-14T00:54:21.523Z,7.85
2022-08-14T00:56:54.843Z,9.45
2022-08-14T00:59:23.265Z,11.45
2022-08-14T01:01:52.888Z,9.50
2022-08-14T01:04:37.650Z,8.20
2022-08-14T01:07:21.041Z,5.80
2022-08-14T01:09:51.469Z,8.77
2022-08-14T01:12:27.065Z,9.13
2022-08-14T01:14:58.725Z,5.60
2022-08-14T01:17:49.676Z,8.52
2022-08-14T01:20:39.872Z,9.30
2022-08-14T01:23:16.326Z,5.95
2022-08-14T01:25:51.484Z,9.85
2022-08-14T01:28:47.356Z,10.05
2022-08-14T01:31:18.800Z,5.80
2022-08-14T01:35:16.509Z,6.30
2022-08-14T01:36:39.347Z,7.93
2022-08-14T01:39:13.038Z,5.72
2022-08-14T01:41:43.395Z,7.40
2022-08-14T01:44:32.480Z,5.95
2022-08-14T01:47:09.653Z,7.00
2022-08-14T01:49:45.773Z,8.38
2022-08-14T01:52:34.245Z,8.40
2022-08-14T01:55:06.731Z,10.15
2022-08-14T01:58:00.841Z,6.38
2022-08-14T02:00:27.674Z,7.82
2022-08-14T02:02:57.146Z,9.68
2022-08-14T02:05:29.463Z,6.95
2022-08-14T02:08:09.763Z,10.90
2022-08-14T02:10:46.604Z,7.25
2022-08-14T02:13:17.293Z,6.68
2022-08-14T02:15:48.387Z,6.72
2022-08-14T02:18:18.200Z,8.80
2022-08-14T02:20:47.846Z,6.88
2022-08-14T02:23:16.506Z,8.18
2022-08-14T02:26:24.347Z,7.47
2022-08-14T02:28:58.306Z,6.70
2022-08-14T02:31:42.641Z,6.68
2022-08-14T02:34:20.105Z,8.10
2022-08-14T02:37:05.157Z,6.82
2022-08-14T02:39:37.132Z,6.30
2022-08-14T02:42:13.233Z,8.07
2022-08-14T02:44:49.437Z,7.07
2022-08-14T02:47:21.045Z,7.72
2022-08-14T02:49:50.493Z,10.15
2022-08-14T02:52:56.000Z,8.20
2022-08-14T02:55:11.890Z,10.27
2022-08-14T02:57:58.108Z,6.97
2022-08-14T03:00:33.243Z,7.75
2022-08-14T03:03:07.592Z,8.77
2022-08-14T03:05:41.207Z,5.95
2022-08-14T03:08:15.750Z,7.63
2022-08-14T03:10:49.025Z,9.52
2022-08-14T03:13:21.397Z,8.45
2022-08-14T03:15:55.572Z,10.20
2022-08-14T03:18:31.217Z,7.60
2022-08-14T03:21:07.628Z,6.40
2022-08-14T03:23:38.614Z,11.85
2022-08-14T03:26:13.241Z,7.78
2022-08-14T03:28:53.133Z,8.32
2022-08-14T03:31:22.478Z,10.57
2022-08-14T03:33:54.586Z,10.48
2022-08-14T03:37:37.770Z,6.68
2022-08-14T03:39:22.290Z,8.50
2022-08-14T03:41:53.811Z,5.70
2022-08-14T03:45:26.101Z,8.50
2022-08-14T03:47:15.445Z,9.63
2022-08-14T03:49:49.804Z,7.35
2022-08-14T03:52:38.871Z,6.75
2022-08-14T03:55:08.860Z,7.45
2022-08-14T03:57:37.967Z,6.78
2022-08-14T04:00:40.533Z,7.22
2022-08-14T04:03:02.397Z,5.72
2022-08-14T04:05:42.818Z,8.00
2022-08-14T04:08:36.258Z,7.80
2022-08-14T04:11:07.872Z,9.55
2022-08-14T04:13:41.162Z,7.47
2022-08-14T04:16:13.561Z,7.07
2022-08-14T04:18:42.780Z,7.03
2022-08-14T04:21:11.754Z,11.40
2022-08-14T04:23:40.727Z,8.35
2022-08-14T04:26:14.517Z,8.25
2022-08-14T04:29:08.582Z,9.93
2022-08-14T04:32:58.245Z,6.32
2022-08-14T04:34:27.110Z,9.60
2022-08-14T04:37:22.425Z,10.32
2022-08-14T04:40:11.709Z,9.48
2022-08-14T04:42:58.177Z,9.82
2022-08-14T04:45:32.834Z,7.57
2022-08-14T04:48:38.962Z,6.43
2022-08-14T04:51:04.069Z,9.00
2022-08-14T04:53:36.039Z,8.32
2022-08-14T04:56:10.607Z,8.77
2022-08-14T04:59:01.562Z,9.65
2022-08-14T05:01:39.669Z,7.75
2022-08-14T05:04:16.154Z,8.25
2022-08-14T05:06:44.885Z,7.43
2022-08-14T05:09:14.363Z,6.82
2022-08-14T05:11:44.223Z,10.68
2022-08-14T05:14:34.155Z,7.43
2022-08-14T05:17:03.567Z,7.95
2022-08-14T05:19:33.580Z,11.52
2022-08-14T05:22:16.720Z,7.43
2022-08-14T05:24:51.334Z,6.70
2022-08-14T05:27:22.996Z,9.57
2022-08-14T05:29:55.097Z,6.88
2022-08-14T05:32:27.535Z,9.52
2022-08-14T05:34:59.169Z,8.20
2022-08-14T05:37:29.802Z,8.00
2022-08-14T05:40:00.476Z,7.30
2022-08-14T05:42:34.323Z,29.35
2022-08-14T05:45:05.016Z,8.73
2022-08-14T05:47:41.332Z,7.22
2022-08-14T05:50:17.535Z,8.25
2022-08-14T05:52:50.720Z,8.43
2022-08-14T05:55:22.193Z,9.88
2022-08-14T05:57:52.937Z,10.82
2022-08-14T06:00:29.948Z,8.45
2022-08-14T06:03:06.867Z,7.30
2022-08-14T06:05:38.696Z,8.10
2022-08-14T06:08:08.785Z,11.40
2022-08-14T06:11:02.749Z,12.95
2022-08-14T06:13:44.973Z,8.70
2022-08-14T06:16:15.511Z,12.70
2022-08-14T06:18:47.661Z,7.70
2022-08-14T06:21:17.730Z,6.65
2022-08-14T06:23:48.839Z,7.53
2022-08-14T06:26:20.619Z,13.00
2022-08-14T06:28:52.067Z,7.75
2022-08-14T06:31:21.069Z,9.98
2022-08-14T06:35:10.123Z,10.35
2022-08-14T06:36:39.792Z,9.10
2022-08-14T06:39:10.504Z,13.18
2022-08-14T06:41:58.176Z,15.73
2022-08-14T06:44:32.929Z,40.17
2022-08-14T06:47:02.654Z,38.33
2022-08-14T06:49:31.039Z,13.35
2022-08-14T06:52:15.102Z,16.98
2022-08-14T06:54:44.202Z,34.58
2022-08-14T06:57:13.194Z,27.25
2022-08-14T06:59:42.119Z,31.27
2022-08-14T07:02:28.837Z,10.77
2022-08-14T07:05:20.873Z,18.05
2022-08-14T07:07:51.138Z,10.57
2022-08-14T07:10:25.052Z,20.83
2022-08-14T07:13:01.387Z,20.33
2022-08-14T07:15:33.715Z,18.60
2022-08-14T07:18:03.675Z,15.35
2022-08-14T07:20:33.949Z,16.42
2022-08-14T07:23:09.227Z,12.05
2022-08-14T07:25:39.822Z,10.75
2022-08-14T07:28:12.901Z,13.13
2022-08-14T07:30:51.573Z,10.77
2022-08-14T07:33:24.812Z,10.52
2022-08-14T07:36:00.873Z,9.07
2022-08-14T07:38:37.649Z,12.27
2022-08-14T07:41:14.522Z,11.35
2022-08-14T07:43:47.640Z,11.27
2022-08-14T07:46:29.365Z,10.32
2022-08-14T07:48:59.289Z,12.55
2022-08-14T07:51:36.743Z,8.48
2022-08-14T07:54:11.009Z,13.48
2022-08-14T07:56:48.238Z,7.40
2022-08-14T07:59:40.618Z,10.43
2022-08-14T08:02:18.979Z,6.50
2022-08-14T08:04:53.005Z,12.32
2022-08-14T08:07:23.766Z,9.02
2022-08-14T08:09:57.193Z,7.90
2022-08-14T08:12:31.204Z,10.00
2022-08-14T08:15:07.229Z,8.43
2022-08-14T08:17:53.531Z,11.85
2022-08-14T08:20:30.224Z,10.43
2022-08-14T08:23:00.636Z,8.95
2022-08-14T08:25:40.049Z,15.30
2022-08-14T08:28:19.823Z,7.43
2022-08-14T08:30:56.222Z,9.77
2022-08-14T08:33:32.279Z,8.60
2022-08-14T08:36:12.744Z,9.27
2022-08-14T08:39:18.062Z,6.63
2022-08-14T08:41:43.821Z,14.75
2022-08-14T08:44:17.458Z,9.05
2022-08-14T08:47:05.778Z,6.22
2022-08-14T08:49:52.583Z,9.60
2022-08-14T08:52:31.990Z,6.40
2022-08-14T08:55:04.960Z,6.30
2022-08-14T08:57:37.932Z,5.50
2022-08-14T09:00:25.450Z,9.10
2022-08-14T09:02:59.218Z,5.95
2022-08-14T09:05:28.879Z,5.82
2022-08-14T09:08:31.857Z,8.60
2022-08-14T09:11:00.057Z,6.97
2022-08-14T09:13:33.163Z,12.80
2022-08-14T09:16:18.678Z,32.30
2022-08-14T09:18:48.094Z,34.72
2022-08-14T09:21:16.578Z,22.95
2022-08-14T09:24:26.541Z,36.75
2022-08-14T09:26:36.055Z,25.05
2022-08-14T09:29:07.946Z,12.57
2022-08-14T09:31:53.389Z,16.38
2022-08-14T09:34:37.994Z,28.27
2022-08-14T09:37:35.786Z,17.23
2022-08-14T09:40:10.164Z,10.13
2022-08-14T09:42:53.791Z,9.38
2022-08-14T09:45:40.111Z,10.98
2022-08-14T09:48:27.717Z,11.75
2022-08-14T09:54:18.916Z,25.20
2022-08-14T09:56:45.678Z,18.98
2022-08-14T09:59:16.629Z,28.38
2022-08-14T10:01:52.651Z,33.80
2022-08-14T10:04:33.669Z,33.97
2022-08-14T10:07:04.134Z,32.90
2022-08-14T10:09:33.331Z,26.90
2022-08-14T10:12:04.770Z,43.03
2022-08-14T10:14:37.156Z,39.03
2022-08-14T10:17:08.438Z,33.88
2022-08-14T10:19:49.034Z,36.30
2022-08-14T10:23:11.941Z,27.85
2022-08-14T10:25:12.291Z,14.23
2022-08-14T10:27:40.257Z,7.82
2022-08-14T10:30:22.435Z,6.40
2022-08-14T10:32:55.886Z,16.08
2022-08-14T10:35:31.796Z,13.38
2022-08-14T10:38:03.488Z,20.75
2022-08-14T10:40:38.742Z,28.08
2022-08-14T10:43:23.343Z,16.20
2022-08-14T10:45:59.644Z,24.15
2022-08-14T10:48:37.238Z,42.70
2022-08-14T10:51:10.352Z,44.45
2022-08-14T10:53:39.235Z,25.67
2022-08-14T10:56:21.537Z,27.92
2022-08-14T11:01:38.651Z,10.90
2022-08-14T11:04:27.722Z,22.45
2022-08-14T11:06:56.742Z,20.02
2022-08-14T11:09:26.040Z,7.45
2022-08-14T11:12:33.314Z,9.40
2022-08-14T11:14:59.474Z,7.70
2022-08-14T11:17:32.861Z,5.65
2022-08-14T11:20:07.018Z,10.55
2022-08-14T11:22:56.392Z,8.25
2022-08-14T11:25:36.684Z,6.20
2022-08-14T11:28:14.703Z,7.45
2022-08-14T11:30:54.254Z,7.10
2022-08-14T11:33:24.487Z,9.93
2022-08-14T11:35:59.551Z,9.85
2022-08-14T11:38:29.233Z,6.70
2022-08-14T11:40:58.662Z,7.13
2022-08-14T11:43:30.548Z,7.45
2022-08-14T11:45:59.320Z,11.13
2022-08-14T11:49:01.658Z,11.55
2022-08-14T11:51:24.007Z,16.13
2022-08-14T11:53:58.478Z,30.95
2022-08-14T11:56:30.586Z,15.63
2022-08-14T11:58:59.410Z,18.83
2022-08-14T12:01:32.693Z,49.08
2022-08-14T12:04:32.585Z,34.25
2022-08-14T12:07:03.545Z,12.60
2022-08-14T12:09:33.278Z,10.43
2022-08-14T12:12:03.617Z,18.48
2022-08-14T12:14:35.097Z,28.38
2022-08-14T12:17:12.868Z,25.63
2022-08-14T12:19:51.081Z,50.90
2022-08-14T12:22:34.026Z,98.32
2022-08-14T12:25:08.478Z,52.42
2022-08-14T12:27:46.618Z,39.72
2022-08-14T12:30:29.255Z,38.67
2022-08-14T12:33:08.601Z,34.50
2022-08-14T12:35:41.283Z,17.92
2022-08-14T12:38:19.550Z,18.10
2022-08-14T12:40:50.321Z,31.02
2022-08-14T12:43:19.766Z,43.08
2022-08-14T12:45:52.281Z,31.75
2022-08-14T12:48:31.956Z,30.60
2022-08-14T12:51:00.726Z,23.08
2022-08-14T12:53:38.699Z,35.58
2022-08-14T12:56:22.046Z,21.48
2022-08-14T12:58:58.570Z,59.30
2022-08-14T13:01:30.966Z,23.27
2022-08-14T13:04:10.418Z,31.33
2022-08-14T13:06:40.408Z,57.35
2022-08-14T13:09:11.488Z,35.38
2022-08-14T13:11:44.956Z,37.78
2022-08-14T13:14:17.269Z,52.58
2022-08-14T13:16:50.278Z,16.00
2022-08-14T13:19:19.892Z,17.00
2022-08-14T13:21:58.680Z,8.60
2022-08-14T13:24:40.021Z,27.15
2022-08-14T13:27:10.818Z,18.05
2022-08-14T13:29:46.761Z,59.40
2022-08-14T13:32:16.320Z,25.23
2022-08-14T13:34:48.397Z,21.65
2022-08-14T13:37:17.429Z,45.03
2022-08-14T13:39:56.200Z,25.40
2022-08-14T13:42:30.751Z,28.45
2022-08-14T13:45:02.829Z,21.42
2022-08-14T13:47:33.658Z,18.77
2022-08-14T13:50:05.002Z,10.73
2022-08-14T13:52:53.497Z,10.88
2022-08-14T13:55:27.883Z,6.90
2022-08-14T13:58:04.157Z,13.70
2022-08-14T14:00:51.807Z,24.88
2022-08-14T14:03:25.394Z,14.48
2022-08-14T14:05:59.163Z,10.18
2022-08-14T14:08:43.544Z,10.13
2022-08-14T14:11:20.408Z,11.95
2022-08-14T14:13:49.460Z,8.70
2022-08-14T14:16:26.122Z,11.88
2022-08-14T14:19:06.773Z,29.75
2022-08-14T14:21:40.766Z,23.35
2022-08-14T14:24:15.443Z,22.95
2022-08-14T14:26:50.609Z,20.98
2022-08-14T14:29:24.028Z,25.80
2022-08-14T14:31:54.942Z,12.60
2022-08-14T14:34:29.483Z,10.27
2022-08-14T14:37:03.086Z,10.45
2022-08-14T14:39:37.427Z,13.95
2022-08-14T14:42:31.959Z,8.15
2022-08-14T14:45:06.632Z,7.90
2022-08-14T14:47:35.644Z,6.05
2022-08-14T14:50:05.552Z,7.88
2022-08-14T14:52:37.078Z,7.40
2022-08-14T14:55:12.559Z,9.95
2022-08-14T14:57:52.093Z,6.82
2022-08-14T15:00:30.962Z,11.27
2022-08-14T15:03:00.159Z,9.50
2022-08-14T15:05:28.855Z,7.05
2022-08-14T15:07:57.838Z,11.15
2022-08-14T15:10:34.271Z,6.70
2022-08-14T15:13:07.235Z,5.50
2022-08-14T15:15:37.392Z,12.70
2022-08-14T15:18:36.389Z,10.38
2022-08-14T15:21:01.482Z,8.18
2022-08-14T15:23:32.233Z,10.90
2022-08-14T15:26:13.443Z,8.45
2022-08-14T15:29:02.947Z,8.18
2022-08-14T15:31:36.210Z,7.30
2022-08-14T15:34:45.104Z,4.93
2022-08-14T15:37:04.421Z,7.32
2022-08-14T15:39:34.040Z,8.85
2022-08-14T15:42:14.730Z,6.80
2022-08-14T15:44:58.431Z,6.43
2022-08-14T15:47:33.304Z,5.35
2022-08-14T15:50:05.921Z,6.75
2022-08-14T15:52:44.858Z,12.25
2022-08-14T15:55:16.696Z,6.32
2022-08-14T15:58:01.916Z,6.68
2022-08-14T16:00:53.866Z,5.63
2022-08-14T16:03:27.008Z,5.72
2022-08-14T16:06:02.864Z,8.77
2022-08-14T16:08:31.060Z,8.23
2022-08-14T16:11:01.524Z,8.75
2022-08-14T16:13:41.629Z,6.63
2022-08-14T16:16:47.657Z,6.22
2022-08-14T16:19:10.869Z,6.70
2022-08-14T16:22:01.516Z,5.75
2022-08-14T16:24:35.954Z,8.27
2022-08-14T16:27:38.681Z,7.00
2022-08-14T16:30:24.734Z,5.93
2022-08-14T16:32:59.155Z,5.95
2022-08-14T16:35:43.304Z,5.57
2022-08-14T16:38:44.886Z,5.25
2022-08-14T16:43:53.384Z,5.93
2022-08-14T16:46:23.537Z,6.18
2022-08-14T16:48:58.527Z,6.78
2022-08-14T16:51:27.883Z,6.93
2022-08-14T16:53:58.906Z,5.57
2022-08-14T16:56:34.939Z,8.25
2022-08-14T16:59:07.250Z,6.15
2022-08-14T17:01:37.359Z,8.23
2022-08-14T17:04:14.984Z,11.75
2022-08-14T17:06:55.056Z,12.77
2022-08-14T17:09:32.361Z,15.75
2022-08-14T17:12:08.243Z,26.33
2022-08-14T17:14:55.001Z,31.98
2022-08-14T17:17:25.906Z,32.15
2022-08-14T17:20:25.068Z,37.72
2022-08-14T17:22:53.060Z,40.55
2022-08-14T17:25:24.492Z,22.27
2022-08-14T17:28:49.965Z,31.35
2022-08-14T17:33:33.827Z,33.75
2022-08-14T17:36:21.282Z,30.20
2022-08-14T17:39:07.777Z,43.53
2022-08-14T17:41:38.745Z,35.27
2022-08-14T17:44:34.446Z,40.17
2022-08-14T17:47:14.750Z,46.67
2022-08-14T17:49:47.667Z,45.28
2022-08-14T17:52:34.904Z,65.72
2022-08-14T17:56:02.413Z,69.43
2022-08-14T17:58:02.162Z,45.33
2022-08-14T18:00:52.366Z,44.15
2022-08-14T18:03:48.215Z,30.73
2022-08-14T18:06:40.199Z,18.23
2022-08-14T18:09:24.865Z,12.95
2022-08-14T18:11:58.714Z,14.75
2022-08-14T18:14:48.768Z,21.00
2022-08-14T18:17:23.970Z,32.78
2022-08-14T18:19:57.694Z,37.80
2022-08-14T18:22:39.489Z,34.77
2022-08-14T18:25:18.246Z,26.30
2022-08-14T18:27:51.972Z,26.42
2022-08-14T18:30:33.336Z,27.63
2022-08-14T18:33:20.954Z,34.13
2022-08-14T18:35:59.980Z,23.90
2022-08-14T18:38:45.782Z,13.90
2022-08-14T18:41:36.827Z,9.05
2022-08-14T18:44:10.535Z,9.55
2022-08-14T18:47:28.807Z,8.98
2022-08-14T18:50:26.298Z,8.07
2022-08-14T18:53:06.915Z,9.55
2022-08-14T18:55:53.145Z,11.75
2022-08-14T18:58:31.328Z,10.98
2022-08-14T19:01:04.631Z,10.32
2022-08-14T19:03:57.367Z,9.02
2022-08-14T19:06:55.953Z,9.02
2022-08-14T19:09:58.032Z,12.98
2022-08-14T19:13:04.836Z,13.00
2022-08-14T19:15:36.948Z,9.13
2022-08-14T19:18:25.973Z,7.75
2022-08-14T19:20:59.417Z,8.75
2022-08-14T19:23:43.308Z,8.75
2022-08-14T19:26:35.904Z,11.75
2022-08-14T19:29:37.689Z,10.70
2022-08-14T19:32:42.543Z,10.15
2022-08-14T19:35:49.351Z,15.20
2022-08-14T19:38:52.931Z,16.17
2022-08-14T19:41:29.623Z,12.98
2022-08-14T19:44:10.827Z,15.20
2022-08-14T19:47:02.501Z,11.90
2022-08-14T19:50:08.636Z,15.07
2022-08-14T19:52:35.237Z,10.32
2022-08-14T19:55:17.640Z,12.30
2022-08-14T19:57:51.986Z,14.60
2022-08-14T20:00:30.337Z,10.23
2022-08-14T20:03:11.887Z,14.55
2022-08-14T20:05:46.311Z,11.30
2022-08-14T20:11:20.705Z,12.18
2022-08-14T20:14:10.356Z,12.75
2022-08-14T20:16:42.950Z,11.75
2022-08-14T20:19:24.854Z,16.52
2022-08-14T20:22:34.627Z,10.07
2022-08-14T20:24:55.303Z,13.63
2022-08-14T20:27:39.617Z,8.82
2022-08-14T20:30:33.931Z,8.13
2022-08-14T20:33:11.042Z,8.80
2022-08-14T20:35:46.943Z,8.23
2022-08-14T20:38:29.247Z,17.27
2022-08-14T20:41:06.355Z,13.15
2022-08-14T20:43:55.751Z,11.20
2022-08-14T20:46:29.927Z,10.02
2022-08-14T20:49:02.195Z,7.85
2022-08-14T20:51:37.339Z,8.32
2022-08-14T20:54:09.063Z,10.30
2022-08-14T20:56:40.474Z,14.13
2022-08-14T20:59:17.851Z,14.85
2022-08-14T21:01:55.484Z,16.90
2022-08-14T21:04:28.461Z,21.38
2022-08-14T21:07:24.696Z,19.52
2022-08-14T21:10:04.974Z,21.80
2022-08-14T21:12:35.981Z,28.55
2022-08-14T21:15:10.044Z,29.38
2022-08-14T21:17:43.221Z,30.65
2022-08-14T21:20:25.226Z,24.60
2022-08-14T21:23:00.535Z,17.15
2022-08-14T21:25:31.525Z,10.88
2022-08-14T21:28:05.923Z,15.07
2022-08-14T21:30:51.512Z,13.15
2022-08-14T21:33:23.409Z,12.75
2022-08-14T21:35:54.849Z,11.57
2022-08-14T21:38:33.859Z,12.25
2022-08-14T21:41:43.531Z,11.13
2022-08-14T21:44:18.168Z,10.63
2022-08-14T21:46:53.368Z,11.50
2022-08-14T21:49:33.809Z,13.40
2022-08-14T21:52:51.079Z,10.25
2022-08-14T21:55:00.639Z,9.82
2022-08-14T21:57:56.804Z,13.15
2022-08-14T22:00:42.262Z,10.23
2022-08-14T22:03:18.088Z,8.93
2022-08-14T22:05:51.484Z,10.70
2022-08-14T22:08:26.936Z,12.70
2022-08-14T22:10:59.221Z,11.10
2022-08-14T22:13:33.806Z,21.67
2022-08-14T22:17:03.326Z,21.20
2022-08-14T22:19:10.466Z,19.00
2022-08-14T22:21:44.132Z,14.95
2022-08-14T22:27:09.166Z,20.00
2022-08-14T22:29:38.775Z,21.80
2022-08-14T22:32:10.717Z,24.05
2022-08-14T22:34:48.118Z,24.38
2022-08-14T22:37:19.874Z,33.47
2022-08-14T22:40:50.731Z,20.98
2022-08-14T22:43:00.656Z,25.42
2022-08-14T22:45:36.515Z,24.95
2022-08-14T22:48:10.808Z,21.00
2022-08-14T22:50:53.407Z,15.32
2022-08-14T22:53:24.210Z,14.93
2022-08-14T22:55:58.094Z,27.20
2022-08-14T22:58:31.644Z,25.40
2022-08-14T23:01:10.632Z,26.70
2022-08-14T23:03:44.077Z,28.70
2022-08-14T23:07:03.076Z,21.67
2022-08-14T23:09:35.442Z,17.67
2022-08-14T23:11:58.832Z,15.38
2022-08-14T23:14:32.917Z,14.40
2022-08-14T23:17:06.221Z,14.90
2022-08-14T23:19:44.586Z,11.40
2022-08-14T23:22:17.100Z,9.98
2022-08-14T23:24:57.898Z,9.15
2022-08-14T23:28:02.669Z,11.93
2022-08-14T23:30:33.928Z,9.75
2022-08-14T23:33:07.563Z,9.63
2022-08-14T23:35:58.672Z,9.55
2022-08-14T23:38:34.431Z,10.60
2022-08-14T23:41:12.853Z,9.55
2022-08-14T23:43:51.458Z,8.23
2022-08-14T23:46:23.798Z,8.20
2022-08-14T23:49:07.427Z,7.68
2022-08-14T23:51:44.309Z,7.13
2022-08-14T23:54:47.521Z,9.75
2022-08-14T23:57:10.250Z,9.88
2022-08-14T23:59:45.114Z,15.25
